Time;durP1;ratioP1;P1;durP2;ratioP2;P2;SDS_P1;SDS_P2;PMS_P1;PMS_P2;Temp;Humidity;BMP_temperature;BMP_pressure;BME280_temperature;BME280_humidity;BME280_pressure;Samples;Min_cycle;Max_cycle;Signal;HPM_P1;HPM_P2
2022/07/12 00:02:42;;;;;;;2.65;2.45;;;21.50;95.20;;;;;;6223198;28;89222;-65
2022/07/12 00:05:45;;;;;;;3.75;3.00;;;21.40;95.20;;;;;;6229809;28;90330;-66
2022/07/12 00:08:47;;;;;;;4.15;2.70;;;21.50;95.20;;;;;;6223360;28;89078;-65
2022/07/12 00:11:50;;;;;;;3.38;2.80;;;21.50;95.30;;;;;;6219710;28;89183;-65
2022/07/12 00:14:52;;;;;;;3.00;2.70;;;21.40;95.40;;;;;;6218375;28;89313;-65
2022/07/12 00:17:54;;;;;;;3.08;2.78;;;21.40;95.50;;;;;;6236354;28;88777;-65
2022/07/12 00:20:58;;;;;;;3.22;2.90;;;21.50;95.40;;;;;;6217587;28;89017;-65
2022/07/12 00:24:00;;;;;;;3.92;2.92;;;21.50;95.50;;;;;;6216916;28;89104;-65
2022/07/12 00:27:02;;;;;;;4.78;3.05;;;21.50;95.50;;;;;;6215253;28;87241;-66
2022/07/12 00:30:05;;;;;;;2.92;2.55;;;21.40;95.50;;;;;;6217955;28;89125;-65
2022/07/12 00:33:08;;;;;;;2.95;2.65;;;21.40;95.60;;;;;;6206561;28;89012;-65
2022/07/12 00:36:12;;;;;;;3.17;2.60;;;21.40;95.60;;;;;;6222704;28;90060;-65
2022/07/12 00:39:14;;;;;;;3.00;2.35;;;21.40;95.60;;;;;;6220438;28;89053;-66
2022/07/12 00:42:16;;;;;;;3.10;2.47;;;21.50;95.60;;;;;;6223227;28;88970;-65
2022/07/12 00:45:18;;;;;;;2.58;2.38;;;21.40;95.70;;;;;;6225090;28;88887;-65
2022/07/12 00:48:20;;;;;;;4.70;3.05;;;21.40;95.70;;;;;;6225381;28;87694;-65
2022/07/12 00:51:25;;;;;;;3.35;2.67;;;21.40;95.70;;;;;;6234638;28;88299;-66
2022/07/12 00:54:28;;;;;;;3.42;2.80;;;21.40;95.60;;;;;;6215612;28;89157;-65
2022/07/12 00:57:30;;;;;;;3.15;2.60;;;21.40;95.60;;;;;;6227346;28;88562;-65
2022/07/12 01:00:32;;;;;;;2.63;2.40;;;21.40;95.60;;;;;;6227271;28;88903;-65
2022/07/12 01:03:34;;;;;;;2.40;2.20;;;21.40;95.70;;;;;;6219933;28;88090;-65
2022/07/12 01:06:38;;;;;;;2.60;2.20;;;21.40;95.80;;;;;;6228328;28;88940;-65
2022/07/12 01:09:40;;;;;;;2.55;2.35;;;21.40;95.70;;;;;;6221870;28;89074;-65
2022/07/12 01:12:42;;;;;;;2.85;2.35;;;21.40;95.70;;;;;;6224723;28;89193;-65
2022/07/12 01:15:45;;;;;;;2.60;2.00;;;21.40;95.70;;;;;;6219942;28;89250;-65
2022/07/12 01:18:47;;;;;;;3.33;2.58;;;21.40;95.80;;;;;;6224156;28;88987;-65
2022/07/12 01:21:53;;;;;;;2.83;2.28;;;21.40;95.70;;;;;;6223004;28;89205;-65
2022/07/12 01:24:57;;;;;;;2.60;2.20;;;21.40;95.70;;;;;;6218539;28;89053;-65
2022/07/12 01:27:59;;;;;;;2.88;2.10;;;21.40;95.80;;;;;;6230561;28;88432;-65
2022/07/12 01:31:02;;;;;;;2.78;2.15;;;21.40;95.80;;;;;;6229090;28;88960;-65
2022/07/12 01:34:04;;;;;;;3.20;2.00;;;21.40;95.80;;;;;;6222752;28;89007;-65
2022/07/12 01:37:06;;;;;;;2.15;1.92;;;21.40;95.80;;;;;;6219111;28;90373;-65
2022/07/12 01:40:11;;;;;;;2.63;1.77;;;21.40;95.80;;;;;;6232694;28;88050;-65
2022/07/12 01:43:14;;;;;;;1.98;1.77;;;21.30;95.80;;;;;;6227789;28;89459;-65
2022/07/12 01:46:16;;;;;;;1.92;1.70;;;21.30;95.90;;;;;;6221641;28;89010;-65
2022/07/12 01:49:18;;;;;;;3.28;2.17;;;21.40;96.00;;;;;;6208761;28;89054;-65
2022/07/12 01:52:21;;;;;;;2.65;2.17;;;21.30;95.90;;;;;;6236159;28;90230;-66
2022/07/12 01:55:24;;;;;;;1.83;1.52;;;21.30;95.90;;;;;;6213376;28;89122;-65
2022/07/12 01:58:26;;;;;;;1.70;1.60;;;21.30;95.90;;;;;;6222696;28;88770;-65
2022/07/12 02:01:29;;;;;;;1.90;1.65;;;21.40;95.90;;;;;;6220599;28;89145;-65
2022/07/12 02:04:31;;;;;;;3.15;1.80;;;21.40;95.90;;;;;;6219898;28;89177;-65
2022/07/12 02:07:33;;;;;;;1.95;1.70;;;21.30;95.80;;;;;;6219943;28;89970;-65
2022/07/12 02:10:37;;;;;;;1.67;1.33;;;21.30;95.80;;;;;;6208388;28;90290;-65
2022/07/12 02:13:39;;;;;;;2.10;1.65;;;21.40;95.90;;;;;;6223961;28;89362;-66
2022/07/12 02:16:41;;;;;;;2.05;1.85;;;21.30;95.80;;;;;;6210571;28;89192;-65
2022/07/12 02:19:43;;;;;;;1.70;1.60;;;21.30;95.80;;;;;;6227786;28;87948;-65
2022/07/12 02:22:45;;;;;;;1.90;1.58;;;21.40;95.90;;;;;;6225179;28;89155;-65
2022/07/12 02:25:49;;;;;;;2.67;1.60;;;21.30;95.90;;;;;;6229409;28;89111;-65
2022/07/12 02:28:51;;;;;;;2.83;1.98;;;21.40;95.90;;;;;;6225116;28;88781;-65
2022/07/12 02:31:53;;;;;;;1.52;1.42;;;21.40;95.90;;;;;;6230738;28;89159;-66
2022/07/12 02:34:55;;;;;;;1.63;1.40;;;21.30;95.90;;;;;;6226224;28;89674;-66
2022/07/12 02:37:57;;;;;;;1.73;1.50;;;21.30;95.90;;;;;;6230271;28;89874;-65
2022/07/12 02:41:00;;;;;;;1.80;1.58;;;21.40;96.00;;;;;;6224844;28;89009;-66
2022/07/12 02:44:02;;;;;;;1.60;1.50;;;21.30;96.00;;;;;;6222391;28;87934;-65
2022/07/12 02:47:05;;;;;;;1.90;1.50;;;21.30;96.10;;;;;;6227549;28;89588;-65
2022/07/12 02:50:08;;;;;;;2.00;1.40;;;21.30;96.00;;;;;;6225567;28;88045;-66
2022/07/12 02:53:11;;;;;;;3.63;2.03;;;21.30;96.10;;;;;;6216358;28;89166;-65
2022/07/12 02:56:15;;;;;;;1.85;1.50;;;21.30;96.20;;;;;;6220545;28;89158;-65
2022/07/12 02:59:17;;;;;;;3.08;1.60;;;21.30;96.30;;;;;;6228359;28;88375;-65
2022/07/12 03:02:19;;;;;;;2.72;1.52;;;21.40;96.50;;;;;;6225671;28;89113;-66
2022/07/12 03:05:21;;;;;;;3.17;1.60;;;21.30;96.60;;;;;;6227248;28;89016;-65
2022/07/12 03:08:23;;;;;;;1.40;1.30;;;21.30;96.70;;;;;;6228290;28;90033;-65
2022/07/12 03:11:26;;;;;;;3.30;1.40;;;21.30;96.70;;;;;;6215075;28;89088;-65
2022/07/12 03:14:28;;;;;;;1.50;1.35;;;21.30;96.80;;;;;;6222949;28;88040;-65
2022/07/12 03:17:30;;;;;;;2.22;1.50;;;21.30;96.90;;;;;;6227247;28;89068;-66
2022/07/12 03:20:33;;;;;;;2.30;1.63;;;21.30;96.90;;;;;;6223230;28;89174;-65
2022/07/12 03:23:35;;;;;;;1.75;1.50;;;21.30;96.80;;;;;;6230451;28;89137;-65
2022/07/12 03:26:38;;;;;;;1.50;1.40;;;21.30;96.90;;;;;;6218359;28;89134;-65
2022/07/12 03:29:40;;;;;;;2.67;1.70;;;21.30;97.00;;;;;;6237718;28;88281;-65
2022/07/12 03:32:43;;;;;;;2.35;1.52;;;21.30;97.00;;;;;;6221761;28;89131;-65
2022/07/12 03:35:45;;;;;;;1.92;1.50;;;21.30;97.00;;;;;;6225118;28;89450;-65
2022/07/12 03:38:47;;;;;;;2.30;1.65;;;21.30;97.10;;;;;;6229499;28;90218;-65
2022/07/12 03:41:51;;;;;;;1.83;1.52;;;21.30;97.30;;;;;;6225056;28;89159;-65
2022/07/12 03:44:53;;;;;;;2.17;1.48;;;21.30;97.30;;;;;;6224278;28;89425;-65
2022/07/12 03:47:55;;;;;;;2.17;1.60;;;21.30;97.30;;;;;;6222403;28;89036;-65
2022/07/12 03:50:56;;;;;;;1.52;1.40;;;21.30;97.30;;;;;;6230828;28;89104;-65
2022/07/12 03:53:58;;;;;;;2.28;1.80;;;21.30;97.30;;;;;;6215773;28;89039;-65
2022/07/12 03:57:14;;;;;;;1.80;1.58;;;21.30;97.50;;;;;;6219267;28;87958;-65
2022/07/12 04:00:16;;;;;;;1.70;1.52;;;21.30;97.60;;;;;;6217238;28;88645;-65
2022/07/12 04:03:18;;;;;;;1.38;1.27;;;21.30;97.70;;;;;;6217494;28;89186;-65
2022/07/12 04:06:20;;;;;;;1.75;1.40;;;21.30;97.70;;;;;;6221271;28;89087;-65
2022/07/12 04:09:22;;;;;;;1.58;1.48;;;21.30;97.70;;;;;;6212991;28;90680;-65
2022/07/12 04:12:25;;;;;;;4.00;2.08;;;21.30;97.70;;;;;;6224500;28;89041;-66
2022/07/12 04:15:27;;;;;;;1.70;1.45;;;21.30;97.80;;;;;;6221173;28;88984;-65
2022/07/12 04:18:29;;;;;;;1.60;1.48;;;21.30;97.90;;;;;;6222635;28;89109;-66
2022/07/12 04:21:31;;;;;;;2.88;2.00;;;21.30;98.40;;;;;;6218990;28;89177;-65
2022/07/12 04:24:33;;;;;;;1.83;1.55;;;21.30;98.70;;;;;;6223839;28;89100;-65
2022/07/12 04:27:37;;;;;;;2.60;1.63;;;21.30;98.60;;;;;;6226328;28;89063;-66
2022/07/12 04:30:39;;;;;;;1.63;1.50;;;21.30;98.70;;;;;;6230264;28;87247;-65
2022/07/12 04:33:41;;;;;;;1.60;1.50;;;21.30;98.70;;;;;;6228075;28;89065;-66
2022/07/12 04:36:43;;;;;;;1.60;1.50;;;21.30;99.00;;;;;;6234290;28;89027;-65
2022/07/12 04:39:45;;;;;;;2.00;1.50;;;21.30;99.10;;;;;;6220332;28;90059;-65
2022/07/12 04:42:49;;;;;;;3.28;2.30;;;21.20;99.10;;;;;;6235772;28;89197;-65
2022/07/12 04:45:51;;;;;;;2.00;1.65;;;21.30;99.20;;;;;;6219694;28;89117;-65
2022/07/12 04:48:53;;;;;;;1.70;1.60;;;21.20;99.40;;;;;;6227359;27;89062;-65
2022/07/12 04:51:55;;;;;;;3.33;2.10;;;21.20;99.30;;;;;;6218480;28;89118;-65
2022/07/12 04:54:57;;;;;;;3.05;1.60;;;21.30;99.30;;;;;;6229937;28;89018;-65
2022/07/12 04:58:00;;;;;;;2.58;2.08;;;21.30;99.50;;;;;;6228257;28;89009;-65
2022/07/12 05:01:05;;;;;;;2.72;2.33;;;21.20;99.90;;;;;;6222781;28;87498;-66
2022/07/12 05:04:07;;;;;;;3.15;2.30;;;21.20;99.90;;;;;;6228091;28;88153;-65
2022/07/12 05:07:09;;;;;;;5.80;2.40;;;21.20;99.90;;;;;;6223856;28;89439;-65
2022/07/12 05:10:11;;;;;;;2.72;2.30;;;21.20;99.90;;;;;;6223691;28;90266;-66
2022/07/12 05:13:15;;;;;;;5.05;2.53;;;21.30;99.90;;;;;;6230341;28;88314;-65
2022/07/12 05:16:16;;;;;;;3.45;2.75;;;21.30;99.90;;;;;;6219672;28;89127;-65
2022/07/12 05:19:19;;;;;;;2.67;2.33;;;21.30;99.90;;;;;;6220655;28;90958;-66
2022/07/12 05:22:21;;;;;;;4.57;3.03;;;21.30;99.90;;;;;;6214989;28;87127;-65
2022/07/12 05:25:23;;;;;;;3.22;2.60;;;21.30;99.90;;;;;;6209270;28;89430;-66
2022/07/12 05:28:26;;;;;;;2.88;2.45;;;21.30;99.90;;;;;;6225080;28;88979;-64
2022/07/12 05:31:28;;;;;;;2.83;2.45;;;21.30;99.90;;;;;;6230401;28;88842;-64
2022/07/12 05:34:30;;;;;;;3.00;2.40;;;21.30;99.90;;;;;;6233085;28;89157;-65
2022/07/12 05:37:32;;;;;;;3.13;2.70;;;21.30;99.90;;;;;;6219524;28;87820;-64
2022/07/12 05:40:34;;;;;;;2.55;2.35;;;21.30;99.90;;;;;;6228712;28;90307;-65
2022/07/12 05:43:38;;;;;;;3.38;2.53;;;21.30;99.90;;;;;;6222937;28;89307;-65
2022/07/12 05:46:40;;;;;;;3.40;2.47;;;21.30;99.90;;;;;;6225812;28;88058;-64
2022/07/12 05:49:42;;;;;;;2.80;2.50;;;21.30;99.90;;;;;;6208381;28;89123;-65
2022/07/12 05:56:04;;;;;;;4.20;2.70;;;21.30;99.90;;;;;;6214577;28;87316;-64
2022/07/12 05:59:08;;;;;;;3.72;2.58;;;21.30;99.90;;;;;;6230419;28;89413;-65
2022/07/12 06:02:10;;;;;;;2.92;2.40;;;21.30;99.90;;;;;;6222278;28;87306;-64
2022/07/12 06:05:12;;;;;;;4.28;2.47;;;21.30;99.90;;;;;;6223013;28;89122;-65
2022/07/12 06:08:14;;;;;;;3.55;2.67;;;21.30;99.90;;;;;;6221057;28;89082;-65
2022/07/12 06:11:17;;;;;;;3.05;2.22;;;21.30;99.90;;;;;;6213604;28;89996;-65
2022/07/12 06:14:20;;;;;;;4.43;2.90;;;21.30;99.90;;;;;;6219091;28;89162;-65
2022/07/12 06:17:23;;;;;;;3.33;2.70;;;21.30;99.90;;;;;;6232302;28;89222;-64
2022/07/12 06:20:26;;;;;;;3.97;2.33;;;21.30;99.90;;;;;;6225762;28;88139;-65
2022/07/12 06:23:28;;;;;;;2.53;2.20;;;21.30;99.90;;;;;;6221249;28;87834;-65
2022/07/12 06:26:30;;;;;;;2.70;2.50;;;21.30;99.90;;;;;;6208156;28;89084;-65
2022/07/12 06:29:33;;;;;;;3.83;2.20;;;21.30;99.90;;;;;;6241486;28;89101;-64
2022/07/12 06:32:35;;;;;;;2.60;2.25;;;21.30;99.90;;;;;;6237496;28;87276;-64
2022/07/12 06:35:37;;;;;;;2.45;2.25;;;21.30;99.90;;;;;;6224923;28;89121;-65
2022/07/12 06:38:39;;;;;;;3.42;2.40;;;21.30;99.90;;;;;;6216753;28;87929;-65
2022/07/12 06:41:41;;;;;;;2.60;2.28;;;21.30;99.90;;;;;;6229441;28;89990;-64
2022/07/12 06:44:44;;;;;;;3.20;2.22;;;21.30;99.90;;;;;;6235623;27;89091;-64
2022/07/12 06:47:47;;;;;;;3.45;2.53;;;21.30;99.90;;;;;;6211174;28;89240;-64
2022/07/12 06:50:49;;;;;;;3.25;2.40;;;21.20;99.90;;;;;;6225593;28;89043;-65
2022/07/12 06:53:51;;;;;;;2.30;2.03;;;21.20;99.90;;;;;;6226821;28;90125;-64
2022/07/12 06:56:53;;;;;;;2.72;2.22;;;21.40;99.90;;;;;;6231684;28;89075;-64
2022/07/12 06:59:56;;;;;;;2.22;1.92;;;21.30;99.90;;;;;;6230487;28;89873;-65
2022/07/12 07:02:58;;;;;;;2.70;2.20;;;21.20;99.90;;;;;;6230894;28;88238;-64
2022/07/12 07:06:00;;;;;;;2.97;2.35;;;21.20;99.90;;;;;;6229498;28;89120;-65
2022/07/12 07:09:06;;;;;;;2.22;2.00;;;21.30;99.90;;;;;;6236114;27;89146;-65
2022/07/12 07:12:09;;;;;;;2.38;2.00;;;21.20;99.90;;;;;;6226319;28;90492;-64
2022/07/12 07:15:15;;;;;;;2.55;2.08;;;21.30;99.90;;;;;;6215649;28;89665;-64
2022/07/12 07:18:17;;;;;;;3.17;2.05;;;21.20;99.90;;;;;;6230949;28;89212;-65
2022/07/12 07:21:19;;;;;;;2.55;2.05;;;21.20;99.90;;;;;;6222466;28;89060;-65
2022/07/12 07:24:21;;;;;;;1.92;1.70;;;21.20;99.90;;;;;;6231776;28;89021;-64
2022/07/12 07:27:23;;;;;;;1.98;1.80;;;21.20;99.90;;;;;;6224165;28;89100;-64
2022/07/12 07:33:46;;;;;;;2.45;1.60;;;21.20;99.90;;;;;;6225984;28;86689;-65
2022/07/12 07:36:48;;;;;;;1.90;1.80;;;21.20;99.90;;;;;;6220085;28;89301;-64
2022/07/12 07:39:50;;;;;;;2.78;1.60;;;21.30;99.90;;;;;;6222627;28;88001;-65
2022/07/12 07:42:52;;;;;;;2.30;1.60;;;21.20;99.90;;;;;;6224004;28;90077;-65
2022/07/12 07:45:56;;;;;;;4.40;2.17;;;21.20;99.90;;;;;;6230265;28;88937;-64
2022/07/12 07:48:58;;;;;;;1.98;1.77;;;21.20;99.90;;;;;;6242700;28;89099;-65
2022/07/12 07:52:00;;;;;;;2.38;1.73;;;21.20;99.90;;;;;;6242434;28;89125;-64
2022/07/12 07:55:02;;;;;;;2.20;1.58;;;21.20;99.90;;;;;;6240685;28;89090;-65
2022/07/12 07:58:04;;;;;;;1.40;1.30;;;21.20;99.90;;;;;;6227168;28;89119;-65
2022/07/12 08:01:08;;;;;;;2.03;1.45;;;21.20;99.90;;;;;;6224880;28;89413;-64
2022/07/12 08:04:10;;;;;;;2.80;1.88;;;21.20;99.90;;;;;;6226555;28;88371;-65
2022/07/12 08:07:13;;;;;;;2.75;1.60;;;21.20;99.90;;;;;;6226983;28;89061;-65
2022/07/12 08:10:15;;;;;;;1.50;1.40;;;21.20;99.90;;;;;;6230821;28;89103;-65
2022/07/12 08:13:17;;;;;;;2.08;1.65;;;21.20;99.90;;;;;;6214732;28;90058;-65
2022/07/12 08:16:21;;;;;;;2.42;1.67;;;21.20;99.90;;;;;;6213946;28;89101;-65
2022/07/12 08:19:23;;;;;;;1.90;1.50;;;21.20;99.90;;;;;;6228569;28;88955;-65
2022/07/12 08:22:25;;;;;;;1.73;1.58;;;21.20;99.90;;;;;;6229059;28;88239;-65
2022/07/12 08:25:27;;;;;;;1.48;1.38;;;21.20;99.90;;;;;;6230573;28;88092;-65
2022/07/12 08:28:29;;;;;;;2.22;1.80;;;21.20;99.90;;;;;;6230657;28;89451;-65
2022/07/12 08:31:32;;;;;;;1.95;1.30;;;21.20;99.90;;;;;;6228487;28;89079;-65
2022/07/12 08:34:35;;;;;;;1.40;1.30;;;21.30;99.90;;;;;;6213708;28;88346;-65
2022/07/12 08:37:37;;;;;;;1.40;1.30;;;21.30;99.90;;;;;;6212418;28;89150;-64
2022/07/12 08:40:39;;;;;;;1.65;1.40;;;21.20;99.90;;;;;;6220627;28;89086;-65
2022/07/12 08:43:42;;;;;;;2.17;1.67;;;21.20;99.90;;;;;;6229157;28;90246;-64
2022/07/12 08:46:47;;;;;;;1.70;1.60;;;21.20;99.90;;;;;;6221050;28;89548;-64
2022/07/12 08:50:22;;;;;;;2.28;1.80;;;21.20;99.90;;;;;;6225025;28;88953;-65
2022/07/12 08:53:24;;;;;;;1.73;1.40;;;21.30;99.90;;;;;;6228885;28;89502;-65
2022/07/12 08:56:34;;;;;;;1.73;1.50;;;21.20;99.90;;;;;;6216841;28;89025;-65
2022/07/12 08:59:36;;;;;;;1.50;1.38;;;21.20;99.90;;;;;;6228585;28;89061;-65
2022/07/12 09:02:47;;;;;;;1.60;1.50;;;21.20;99.90;;;;;;6211762;28;89021;-64
2022/07/12 09:05:52;;;;;;;2.38;1.63;;;21.20;99.90;;;;;;6224465;28;87389;-65
2022/07/12 09:08:54;;;;;;;2.92;1.85;;;21.20;99.90;;;;;;6239720;28;89282;-65
2022/07/12 09:11:57;;;;;;;2.25;1.63;;;21.30;99.90;;;;;;6238494;28;89870;-65
2022/07/12 09:15:15;;;;;;;1.73;1.35;;;21.30;99.90;;;;;;6246346;28;90073;-65
2022/07/12 09:18:28;;;;;;;1.63;1.52;;;21.30;99.90;;;;;;6222955;28;89152;-65
2022/07/12 09:21:30;;;;;;;1.95;1.42;;;21.20;99.90;;;;;;6221058;28;88418;-65
2022/07/12 09:24:33;;;;;;;1.63;1.38;;;21.20;99.90;;;;;;6222188;28;89101;-65
2022/07/12 09:27:35;;;;;;;2.20;1.40;;;21.20;99.90;;;;;;6216316;28;87999;-65
2022/07/12 09:30:47;;;;;;;1.27;1.17;;;21.20;99.90;;;;;;6225456;28;88023;-65
2022/07/12 09:37:24;;;;;;;1.50;1.25;;;21.20;99.90;;;;;;6216564;28;86538;-65
2022/07/12 09:40:26;;;;;;;1.88;1.42;;;21.20;99.90;;;;;;6228195;28;87995;-65
2022/07/12 09:43:29;;;;;;;1.50;1.10;;;21.20;99.90;;;;;;6227964;28;89466;-65
2022/07/12 09:46:33;;;;;;;1.27;1.17;;;21.20;99.90;;;;;;6218121;28;90094;-65
2022/07/12 09:49:38;;;;;;;2.17;1.40;;;21.20;99.90;;;;;;6231643;28;89103;-65
2022/07/12 09:52:42;;;;;;;1.20;1.10;;;21.20;99.90;;;;;;6228572;28;89086;-65
2022/07/12 09:55:46;;;;;;;1.73;1.20;;;21.20;99.90;;;;;;6215472;28;89072;-65
2022/07/12 09:58:53;;;;;;;2.08;1.30;;;21.20;99.90;;;;;;6216709;28;88767;-65
2022/07/12 10:01:59;;;;;;;1.55;1.30;;;21.20;99.90;;;;;;6221255;28;89068;-65
2022/07/12 10:05:04;;;;;;;1.15;1.05;;;21.20;99.90;;;;;;6228896;28;89060;-65
2022/07/12 10:08:07;;;;;;;1.20;1.10;;;21.20;99.90;;;;;;6217676;28;88557;-65
2022/07/12 10:11:12;;;;;;;1.35;1.23;;;21.20;99.90;;;;;;6213381;28;89279;-65
2022/07/12 10:14:15;;;;;;;2.03;1.40;;;21.20;99.90;;;;;;6239169;28;88270;-65
2022/07/12 10:17:23;;;;;;;1.90;1.40;;;21.20;99.90;;;;;;6217497;28;90378;-65
2022/07/12 10:20:27;;;;;;;2.28;1.30;;;21.20;99.90;;;;;;6236624;28;89014;-65
2022/07/12 10:23:34;;;;;;;1.48;1.25;;;21.20;99.90;;;;;;6229343;28;89215;-65
2022/07/12 10:26:40;;;;;;;1.40;1.27;;;21.30;99.90;;;;;;6212791;28;89116;-65
2022/07/12 10:29:42;;;;;;;1.20;1.00;;;21.20;99.90;;;;;;6240934;28;87984;-65
2022/07/12 10:32:46;;;;;;;1.10;1.00;;;21.20;99.90;;;;;;6227926;28;89492;-65
2022/07/12 10:36:05;;;;;;;1.20;1.10;;;21.20;99.90;;;;;;6231918;28;89065;-65
2022/07/12 10:39:13;;;;;;;1.23;1.10;;;21.20;99.90;;;;;;6225737;28;88498;-65
2022/07/12 10:42:18;;;;;;;1.25;1.10;;;21.30;99.90;;;;;;6232621;28;87959;-65
2022/07/12 10:45:24;;;;;;;2.00;1.40;;;21.20;99.90;;;;;;6237561;28;89218;-65
2022/07/12 10:48:27;;;;;;;1.90;1.33;;;21.30;99.90;;;;;;6229702;28;90021;-65
2022/07/12 10:51:32;;;;;;;1.40;1.30;;;21.30;99.90;;;;;;6220830;28;89414;-65
2022/07/12 10:54:34;;;;;;;1.33;1.10;;;21.30;99.90;;;;;;6230842;28;89052;-65
2022/07/12 10:57:40;;;;;;;1.30;1.20;;;21.30;99.90;;;;;;6222111;28;89024;-65
2022/07/12 11:00:42;;;;;;;1.63;1.27;;;21.30;99.90;;;;;;6228603;28;89070;-65
2022/07/12 11:03:46;;;;;;;1.80;1.25;;;21.30;99.90;;;;;;6223112;28;88890;-65
2022/07/12 11:06:55;;;;;;;1.65;1.35;;;21.30;99.90;;;;;;6212487;28;89272;-65
2022/07/12 11:09:57;;;;;;;1.58;1.40;;;21.30;99.90;;;;;;6222199;28;88469;-66
2022/07/12 11:13:01;;;;;;;2.30;1.40;;;21.40;99.50;;;;;;6222268;28;88481;-65
2022/07/12 11:16:03;;;;;;;1.40;1.17;;;21.30;99.90;;;;;;6217589;28;89118;-65
2022/07/12 11:19:08;;;;;;;1.20;1.00;;;21.30;99.70;;;;;;6212450;28;89982;-65
2022/07/12 11:22:13;;;;;;;1.42;1.15;;;21.30;99.90;;;;;;6216144;28;89307;-65
2022/07/12 11:25:15;;;;;;;1.67;1.20;;;21.40;99.30;;;;;;6220699;28;89248;-65
2022/07/12 11:28:19;;;;;;;2.33;1.00;;;21.40;99.60;;;;;;6223155;28;89053;-65
2022/07/12 11:31:21;;;;;;;2.35;1.20;;;21.40;99.90;;;;;;6234343;28;88218;-65
2022/07/12 11:34:24;;;;;;;1.20;1.00;;;21.30;99.30;;;;;;6224542;28;89063;-65
2022/07/12 11:37:27;;;;;;;1.40;1.10;;;21.30;99.70;;;;;;6226465;28;89058;-66
2022/07/12 11:40:30;;;;;;;1.38;1.10;;;21.40;99.60;;;;;;6207651;28;88403;-65
2022/07/12 11:43:34;;;;;;;2.10;1.27;;;21.40;99.90;;;;;;6234810;28;88311;-65
2022/07/12 11:46:36;;;;;;;1.55;0.98;;;21.40;99.40;;;;;;6219327;28;89103;-65
2022/07/12 11:49:42;;;;;;;0.90;0.90;;;21.40;99.60;;;;;;6238053;27;90316;-65
2022/07/12 11:52:46;;;;;;;2.13;1.15;;;21.40;99.70;;;;;;6242375;28;89126;-66
2022/07/12 11:55:49;;;;;;;1.38;1.10;;;21.30;99.10;;;;;;6227626;28;89121;-65
2022/07/12 11:58:56;;;;;;;1.20;1.10;;;21.40;99.30;;;;;;6229573;28;89246;-66
2022/07/12 12:02:07;;;;;;;1.30;1.20;;;21.40;99.00;;;;;;6228930;28;89054;-65
2022/07/12 12:05:09;;;;;;;1.10;1.00;;;21.30;99.20;;;;;;6220728;28;89442;-65
2022/07/12 12:08:16;;;;;;;1.75;1.20;;;21.40;99.20;;;;;;6217865;28;88149;-65
2022/07/12 12:11:18;;;;;;;1.30;1.20;;;21.40;99.90;;;;;;6215561;28;88415;-66
2022/07/12 12:14:20;;;;;;;1.58;1.15;;;21.40;99.90;;;;;;6224154;28;89499;-65
2022/07/12 12:17:22;;;;;;;1.67;1.15;;;21.40;99.90;;;;;;6228568;28;88269;-65
2022/07/12 12:20:25;;;;;;;1.70;1.20;;;21.40;99.90;;;;;;6229443;28;89989;-66
2022/07/12 12:23:29;;;;;;;1.20;1.10;;;21.40;99.70;;;;;;6216811;28;89217;-65
2022/07/12 12:26:32;;;;;;;1.25;1.15;;;21.40;99.40;;;;;;6205807;28;89027;-66
2022/07/12 12:29:43;;;;;;;1.20;1.10;;;21.40;98.80;;;;;;6216476;28;89071;-66
2022/07/12 12:32:46;;;;;;;1.63;1.05;;;21.40;98.30;;;;;;6215198;28;89382;-66
2022/07/12 12:35:48;;;;;;;1.30;1.20;;;21.40;98.30;;;;;;6225436;28;89045;-66
2022/07/12 12:38:53;;;;;;;1.15;1.05;;;21.40;98.40;;;;;;6208007;28;89248;-66
2022/07/12 12:41:55;;;;;;;1.30;1.20;;;21.40;98.20;;;;;;6218777;28;88682;-66
2022/07/12 12:44:57;;;;;;;1.58;1.10;;;21.40;97.80;;;;;;6220625;28;89014;-66
2022/07/12 12:48:01;;;;;;;1.15;1.05;;;21.40;98.00;;;;;;6232643;28;89382;-66
2022/07/12 12:51:06;;;;;;;1.42;1.10;;;21.40;95.70;;;;;;6220515;28;89096;-66
2022/07/12 12:54:10;;;;;;;1.20;1.00;;;21.50;96.60;;;;;;6233350;28;89634;-66
2022/07/12 12:57:12;;;;;;;1.50;1.20;;;21.40;97.10;;;;;;6240582;27;89129;-66
2022/07/12 13:00:14;;;;;;;1.23;1.02;;;21.40;96.40;;;;;;6240666;28;89105;-66
2022/07/12 13:03:18;;;;;;;1.83;1.10;;;21.50;95.20;;;;;;6220327;28;89284;-66
2022/07/12 13:06:21;;;;;;;0.90;0.90;;;21.50;95.20;;;;;;6216908;28;89045;-66
2022/07/12 13:09:25;;;;;;;1.10;1.00;;;21.50;95.60;;;;;;6231775;28;89097;-66
2022/07/12 13:12:27;;;;;;;1.20;1.00;;;21.50;95.40;;;;;;6225849;28;88538;-66
2022/07/12 13:15:29;;;;;;;0.90;0.90;;;21.50;94.80;;;;;;6244216;28;89098;-66
2022/07/12 13:18:31;;;;;;;1.23;1.13;;;21.50;94.20;;;;;;6228569;28;89102;-66
2022/07/12 13:21:33;;;;;;;1.58;1.00;;;21.50;94.20;;;;;;6224716;28;90038;-66
2022/07/12 13:24:36;;;;;;;1.55;1.13;;;21.50;94.30;;;;;;6233299;28;89161;-66
2022/07/12 13:27:39;;;;;;;1.33;1.20;;;21.50;94.50;;;;;;6220099;28;89167;-66
2022/07/12 13:30:41;;;;;;;1.98;1.10;;;21.50;94.70;;;;;;6219905;28;89034;-66
2022/07/12 13:33:43;;;;;;;1.13;1.02;;;21.50;94.60;;;;;;6240653;28;89079;-66
2022/07/12 13:36:45;;;;;;;1.60;1.00;;;21.50;95.00;;;;;;6232790;28;89207;-66
2022/07/12 13:43:09;;;;;;;1.20;1.10;;;21.50;95.70;;;;;;6222841;28;88188;-66
2022/07/12 13:46:11;;;;;;;1.15;1.05;;;21.50;95.80;;;;;;6225878;28;88912;-66
2022/07/12 13:49:14;;;;;;;1.60;1.30;;;21.50;95.60;;;;;;6226685;28;88078;-66
2022/07/12 13:52:17;;;;;;;1.77;1.27;;;21.50;94.60;;;;;;6231036;28;90318;-66
2022/07/12 13:55:20;;;;;;;1.75;1.00;;;21.50;94.60;;;;;;6233513;28;89312;-66
2022/07/12 13:58:23;;;;;;;2.28;1.02;;;21.50;94.30;;;;;;6239140;28;89174;-66
2022/07/12 14:01:25;;;;;;;2.45;1.40;;;21.50;94.10;;;;;;6222209;28;89040;-66
2022/07/12 14:04:27;;;;;;;1.30;1.20;;;21.50;94.60;;;;;;6214388;28;89450;-66
2022/07/12 14:07:29;;;;;;;1.85;1.05;;;21.50;94.40;;;;;;6222533;28;89042;-66
2022/07/12 14:10:33;;;;;;;1.60;1.10;;;21.50;94.20;;;;;;6223988;28;89009;-66
2022/07/12 14:13:35;;;;;;;1.58;1.30;;;21.50;93.90;;;;;;6223057;28;89936;-66
2022/07/12 14:16:37;;;;;;;1.20;1.10;;;21.50;94.20;;;;;;6211457;28;89451;-66
2022/07/12 14:19:39;;;;;;;1.30;1.10;;;21.50;93.30;;;;;;6220647;28;89084;-66
2022/07/12 14:22:41;;;;;;;1.20;1.10;;;21.60;93.40;;;;;;6213341;28;90091;-66
2022/07/12 14:25:45;;;;;;;1.10;1.00;;;21.50;93.00;;;;;;6227892;28;88076;-66
2022/07/12 14:28:46;;;;;;;1.60;1.40;;;21.60;93.00;;;;;;6223564;28;89065;-66
2022/07/12 14:31:49;;;;;;;2.10;1.48;;;21.60;93.00;;;;;;6212211;28;89005;-66
2022/07/12 14:34:51;;;;;;;1.35;1.25;;;21.60;93.30;;;;;;6227018;28;89107;-67
2022/07/12 14:37:53;;;;;;;3.42;1.20;;;21.60;93.60;;;;;;6222559;28;90560;-66
2022/07/12 14:40:57;;;;;;;3.17;1.35;;;21.60;93.00;;;;;;6219099;28;89462;-66
2022/07/12 14:43:59;;;;;;;1.27;1.10;;;21.60;92.00;;;;;;6220412;28;88461;-66
2022/07/12 14:47:01;;;;;;;1.40;1.30;;;21.70;91.80;;;;;;6207919;28;89269;-66
2022/07/12 14:50:05;;;;;;;2.40;1.50;;;21.60;92.20;;;;;;6208692;28;89372;-67
2022/07/12 14:53:07;;;;;;;1.40;1.20;;;21.60;92.60;;;;;;6216641;28;90038;-67
2022/07/12 14:56:10;;;;;;;1.45;1.35;;;21.60;92.90;;;;;;6216329;28;87855;-66
2022/07/12 14:59:12;;;;;;;2.10;1.60;;;21.60;92.70;;;;;;6224320;28;89182;-67
2022/07/12 15:02:14;;;;;;;2.97;1.90;;;21.60;92.20;;;;;;6217598;28;88298;-67
2022/07/12 15:05:16;;;;;;;2.97;1.60;;;21.70;91.70;;;;;;6233016;28;88440;-67
2022/07/12 15:08:18;;;;;;;1.70;1.52;;;21.70;91.90;;;;;;6219728;27;87988;-67
2022/07/12 15:11:22;;;;;;;1.45;1.30;;;21.70;91.80;;;;;;6214139;28;89191;-67
2022/07/12 15:14:24;;;;;;;2.47;1.42;;;21.60;91.60;;;;;;6223982;28;87057;-67
2022/07/12 15:17:26;;;;;;;2.08;1.40;;;21.70;91.90;;;;;;6226167;28;89087;-66
2022/07/12 15:20:27;;;;;;;1.70;1.33;;;21.60;91.70;;;;;;6215616;28;89125;-67
2022/07/12 15:23:30;;;;;;;1.50;1.40;;;21.60;91.70;;;;;;6226225;28;90074;-66
2022/07/12 15:26:33;;;;;;;2.92;1.80;;;21.60;91.40;;;;;;6217607;28;89058;-67
2022/07/12 15:29:35;;;;;;;1.50;1.40;;;21.60;91.80;;;;;;6233990;28;89062;-66
2022/07/12 15:32:37;;;;;;;2.03;1.60;;;21.60;91.30;;;;;;6207564;28;89226;-67
2022/07/12 15:35:39;;;;;;;1.55;1.45;;;21.60;90.80;;;;;;6221475;28;89146;-66
2022/07/12 15:38:44;;;;;;;1.60;1.45;;;21.60;91.00;;;;;;6216318;28;89201;-66
2022/07/12 15:41:47;;;;;;;1.60;1.42;;;21.60;91.00;;;;;;6230273;28;89105;-66
2022/07/12 15:44:49;;;;;;;1.50;1.40;;;21.60;91.00;;;;;;6218209;28;88389;-66
2022/07/12 15:47:51;;;;;;;2.75;1.50;;;21.60;90.30;;;;;;6230414;28;89013;-67
2022/07/12 15:50:53;;;;;;;2.05;1.67;;;21.60;90.10;;;;;;6226669;28;89050;-66
2022/07/12 15:53:54;;;;;;;3.17;1.75;;;21.70;90.10;;;;;;6218435;28;90134;-67
2022/07/12 15:56:57;;;;;;;1.73;1.60;;;21.70;90.00;;;;;;6217718;28;89068;-67
2022/07/12 15:59:59;;;;;;;1.92;1.40;;;21.70;90.10;;;;;;6219778;28;89008;-66
2022/07/12 16:03:03;;;;;;;1.40;1.30;;;21.60;89.90;;;;;;6217117;28;89198;-66
2022/07/12 16:06:05;;;;;;;2.88;1.42;;;21.60;89.60;;;;;;6217306;28;88001;-66
2022/07/12 16:09:07;;;;;;;1.60;1.50;;;21.60;89.10;;;;;;6227269;28;89597;-67